Time;durP1;ratioP1;P1;durP2;ratioP2;P2;SDS_P1;SDS_P2;PMS_P1;PMS_P2;Temp;Humidity;BMP_temperature;BMP_pressure;BME280_temperature;BME280_humidity;BME280_pressure;Samples;Min_cycle;Max_cycle;Signal;HPM_P1;HPM_P2
2023/05/21 04:55:14;;;;;;;9.13;5.82;;;;;;;18.66;100.00;94600.44;5133781;23;20530;-86
2023/05/21 04:57:39;;;;;;;6.65;5.95;;;;;;;18.13;100.00;94561.16;4875295;29;20040;-88
2023/05/21 05:00:06;;;;;;;6.80;6.03;;;;;;;17.22;100.00;94601.53;4876648;29;20365;-89
2023/05/21 05:02:31;;;;;;;8.52;6.75;;;;;;;18.37;100.00;94566.19;4892086;29;20043;-89
2023/05/21 05:04:58;;;;;;;5.72;5.28;;;;;;;17.98;100.00;94568.69;4881635;29;20028;-89
2023/05/21 05:07:24;;;;;;;6.55;5.40;;;;;;;20.71;100.00;94575.56;4871652;29;20067;-88
2023/05/21 05:09:49;;;;;;;5.32;4.93;;;;;;;20.40;99.97;94537.50;4873066;29;20447;-88
2023/05/21 05:12:14;;;;;;;6.70;5.10;;;;;;;18.12;100.00;94567.44;4873829;29;20033;-89
2023/05/21 05:14:40;;;;;;;6.10;5.50;;;;;;;17.40;100.00;94559.59;4889906;29;20537;-88
2023/05/21 05:17:08;;;;;;;5.82;5.32;;;;;;;17.50;100.00;94610.66;4858436;29;20486;-87
2023/05/21 05:19:34;;;;;;;8.38;5.72;;;;;;;17.22;100.00;94616.41;4873634;29;20546;-86
2023/05/21 05:22:00;;;;;;;6.60;5.97;;;;;;;17.19;100.00;94641.22;4874114;29;20044;-89
2023/05/21 05:24:25;;;;;;;7.35;6.75;;;;;;;17.09;100.00;94630.47;4854049;29;20033;-90
2023/05/21 05:26:51;;;;;;;10.70;6.53;;;;;;;17.31;100.00;94649.13;4861203;29;20040;-90
2023/05/21 05:29:16;;;;;;;9.48;6.07;;;;;;;17.10;100.00;94642.53;4868335;29;20487;-90
2023/05/21 05:31:42;;;;;;;7.22;6.63;;;;;;;16.96;100.00;94648.91;4858220;29;20056;-89
2023/05/21 05:34:07;;;;;;;8.05;6.00;;;;;;;16.63;100.00;94606.63;4857462;29;20051;-90
2023/05/21 05:36:32;;;;;;;9.65;5.47;;;;;;;16.83;100.00;94581.84;4848804;29;20048;-89
2023/05/21 05:38:58;;;;;;;6.97;5.35;;;;;;;16.89;100.00;94589.84;4865364;29;20032;-83
2023/05/21 05:41:23;;;;;;;7.63;5.22;;;;;;;16.97;100.00;94602.63;4850462;29;20104;-88
2023/05/21 05:43:49;;;;;;;7.03;5.55;;;;;;;17.35;100.00;94621.50;4862347;29;20501;-89
2023/05/21 05:46:14;;;;;;;7.18;5.53;;;;;;;17.44;100.00;94578.28;4872948;29;20104;-86
2023/05/21 05:48:40;;;;;;;6.38;5.28;;;;;;;21.51;92.19;94557.31;4872213;29;20032;-89
2023/05/21 05:51:05;;;;;;;4.50;4.10;;;;;;;20.31;85.23;94546.03;4858032;29;20055;-89
2023/05/21 05:53:31;;;;;;;4.40;4.10;;;;;;;20.37;83.43;94558.22;4861298;29;20036;-89
2023/05/21 05:55:56;;;;;;;6.05;4.18;;;;;;;18.84;96.17;94548.63;4838890;29;20113;-89
2023/05/21 05:58:22;;;;;;;4.88;4.47;;;;;;;17.93;100.00;94537.91;4874615;29;21006;-85
2023/05/21 06:00:47;;;;;;;4.70;4.30;;;;;;;18.64;98.89;94550.00;4869754;29;20547;-84
2023/05/21 06:03:12;;;;;;;5.30;4.75;;;;;;;18.91;99.99;94567.66;4886083;29;20103;-85
2023/05/21 06:05:38;;;;;;;4.45;4.05;;;;;;;18.41;100.00;94563.91;4868468;29;20525;-82
2023/05/21 06:08:04;;;;;;;4.35;4.05;;;;;;;22.03;80.41;94551.53;4886612;29;20040;-85
2023/05/21 06:10:30;;;;;;;4.45;4.15;;;;;;;25.61;58.15;94546.13;4875696;29;20100;-85
2023/05/21 06:12:55;;;;;;;7.97;4.32;;;;;;;22.67;68.56;94523.22;4878573;29;20066;-87
2023/05/21 06:15:21;;;;;;;5.65;4.20;;;;;;;23.07;71.61;94531.34;4857223;29;20060;-87
2023/05/21 06:17:46;;;;;;;10.95;4.18;;;;;;;23.37;69.17;94521.94;4885442;29;20040;-86
2023/05/21 06:20:12;;;;;;;4.32;3.92;;;;;;;27.03;51.61;94520.00;4869277;29;20037;-84
2023/05/21 06:22:37;;;;;;;6.13;4.65;;;;;;;25.43;52.51;94528.91;4885794;29;20564;-85
2023/05/21 06:25:03;;;;;;;5.47;3.97;;;;;;;24.19;58.99;94508.59;4873318;29;20033;-86
2023/05/21 06:27:29;;;;;;;5.43;3.95;;;;;;;24.35;58.17;94520.75;4854293;29;20189;-85
2023/05/21 06:29:56;;;;;;;4.80;4.07;;;;;;;24.48;62.57;94522.06;4866175;29;20112;-85
2023/05/21 06:32:22;;;;;;;4.93;3.95;;;;;;;23.84;59.37;94513.84;4876441;29;20024;-85
2023/05/21 06:34:47;;;;;;;7.07;4.07;;;;;;;23.92;60.08;94503.53;4887524;29;20025;-86
2023/05/21 06:37:12;;;;;;;4.47;3.47;;;;;;;25.36;55.04;94478.06;4865938;29;20025;-91
2023/05/21 06:39:38;;;;;;;4.57;3.30;;;;;;;27.14;51.51;94480.75;4864589;29;20467;-86
2023/05/21 06:42:03;;;;;;;4.22;3.80;;;;;;;28.20;46.41;94524.53;4855621;29;20029;-84
2023/05/21 06:44:29;;;;;;;5.03;3.75;;;;;;;27.63;46.51;94502.47;4867092;29;20510;-84
2023/05/21 06:46:55;;;;;;;6.50;3.60;;;;;;;28.88;44.91;94521.25;4866833;29;20033;-84
2023/05/21 06:49:20;;;;;;;4.53;4.05;;;;;;;24.15;56.82;94523.41;4864914;29;20577;-83
2023/05/21 06:51:46;;;;;;;4.22;3.80;;;;;;;23.46;66.03;94515.13;4866844;29;20033;-84
2023/05/21 06:54:11;;;;;;;5.15;3.83;;;;;;;23.00;67.28;94514.94;4877506;29;20199;-85
2023/05/21 06:56:37;;;;;;;4.95;4.00;;;;;;;22.74;66.04;94526.44;4863596;29;20029;-86
2023/05/21 06:59:02;;;;;;;5.90;3.80;;;;;;;22.17;69.17;94502.56;4852275;29;20081;-86
2023/05/21 07:01:29;;;;;;;4.10;3.80;;;;;;;22.75;64.66;94498.97;4872924;29;20037;-86
2023/05/21 07:03:54;;;;;;;9.43;3.90;;;;;;;22.88;65.10;94521.50;4866147;29;20105;-85
2023/05/21 07:06:21;;;;;;;6.63;3.78;;;;;;;22.49;63.99;94524.44;4881529;29;20037;-85
2023/05/21 07:08:48;;;;;;;4.13;3.83;;;;;;;21.83;62.83;94483.53;4884166;29;20068;-85
2023/05/21 07:11:14;;;;;;;6.20;3.78;;;;;;;22.17;65.74;94526.31;4862448;29;20033;-83
2023/05/21 07:13:39;;;;;;;4.47;3.60;;;;;;;23.22;67.00;94529.81;4862844;29;20033;-87
2023/05/21 07:16:05;;;;;;;4.47;3.50;;;;;;;23.41;59.47;94515.88;4885399;29;20041;-83
2023/05/21 07:18:31;;;;;;;6.82;4.13;;;;;;;22.76;62.86;94513.78;4888654;29;20088;-86
2023/05/21 07:20:56;;;;;;;9.30;4.35;;;;;;;22.63;64.50;94508.13;4885649;29;20052;-86
2023/05/21 07:23:22;;;;;;;5.82;3.88;;;;;;;22.66;66.42;94518.22;4883572;29;20029;-89
2023/05/21 07:25:47;;;;;;;9.75;4.60;;;;;;;22.39;66.47;94511.16;4874945;29;20473;-86
2023/05/21 07:28:12;;;;;;;8.60;4.43;;;;;;;22.27;67.27;94509.75;4855465;29;20028;-88
2023/05/21 07:30:38;;;;;;;6.50;4.28;;;;;;;21.86;67.31;94516.53;4894203;29;20031;-87
2023/05/21 07:33:03;;;;;;;5.15;3.45;;;;;;;21.66;67.62;94529.53;4871401;29;20044;-88
2023/05/21 07:35:29;;;;;;;4.68;4.28;;;;;;;21.82;66.44;94520.72;4889255;29;20035;-85
2023/05/21 07:37:54;;;;;;;5.95;4.18;;;;;;;22.21;62.47;94524.78;4886713;29;20039;-87
2023/05/21 07:40:20;;;;;;;4.78;4.03;;;;;;;22.30;61.68;94504.78;4872056;29;20024;-87
2023/05/21 07:42:45;;;;;;;4.15;3.75;;;;;;;22.08;64.09;94498.00;4884818;29;20028;-84
2023/05/21 07:45:11;;;;;;;7.50;3.88;;;;;;;21.96;63.43;94521.94;4866940;29;20035;-84
2023/05/21 07:47:36;;;;;;;4.03;3.63;;;;;;;22.02;63.57;94531.47;4878344;29;20036;-86
2023/05/21 07:50:02;;;;;;;7.25;6.25;;;;;;;21.46;64.18;94520.38;4882741;29;20033;-86
2023/05/21 07:52:27;;;;;;;5.82;4.63;;;;;;;21.41;70.79;94495.81;4871902;29;20037;-83
2023/05/21 07:54:52;;;;;;;4.43;3.88;;;;;;;21.37;68.61;94524.50;4866219;29;20057;-87
2023/05/21 07:57:18;;;;;;;6.05;4.22;;;;;;;21.13;65.90;94496.84;4873702;29;20029;-85
2023/05/21 07:59:43;;;;;;;6.22;3.83;;;;;;;23.11;66.22;94531.63;4870895;29;20032;-85
2023/05/21 08:02:09;;;;;;;4.38;3.97;;;;;;;22.72;62.46;94482.84;4870223;29;20029;-85
2023/05/21 08:04:34;;;;;;;5.28;3.80;;;;;;;22.55;53.44;94514.69;4866847;29;20029;-84
2023/05/21 08:07:00;;;;;;;6.35;4.22;;;;;;;22.38;58.99;94493.72;4878441;29;20075;-83
2023/05/21 08:09:26;;;;;;;7.72;4.03;;;;;;;21.74;57.60;94527.22;4867891;29;20037;-88
2023/05/21 08:11:51;;;;;;;5.80;3.90;;;;;;;20.84;56.16;94532.28;4874211;29;20016;-90
2023/05/21 08:14:16;;;;;;;5.75;3.50;;;;;;;20.57;57.38;94518.25;4876642;29;20029;-90
2023/05/21 08:16:43;;;;;;;9.73;4.07;;;;;;;20.98;55.69;94530.88;4882590;29;20068;-91
2023/05/21 08:19:09;;;;;;;7.97;3.97;;;;;;;21.21;53.20;94532.50;4874338;29;20502;-85
2023/05/21 08:21:35;;;;;;;6.07;3.72;;;;;;;21.14;53.85;94530.06;4859532;29;20036;-85
2023/05/21 08:24:01;;;;;;;4.75;3.40;;;;;;;21.74;50.31;94529.88;4875881;29;20028;-85
2023/05/21 08:26:27;;;;;;;10.88;3.72;;;;;;;21.91;50.44;94525.31;4859591;29;20029;-91
2023/05/21 08:28:52;;;;;;;4.32;3.92;;;;;;;21.25;50.79;94530.97;4861030;29;20430;-89
2023/05/21 08:31:18;;;;;;;6.60;3.90;;;;;;;20.61;51.45;94519.34;4885611;29;20033;-89
2023/05/21 08:33:50;;;;;;;6.38;3.53;;;;;;;21.09;51.74;94524.75;4859087;29;20040;-89
2023/05/21 08:36:16;;;;;;;8.10;4.10;;;;;;;20.20;57.13;94529.25;4881773;29;20499;-85
2023/05/21 08:38:56;;;;;;;17.23;4.85;;;;;;;20.09;58.74;94527.53;4853973;29;20093;-85
2023/05/21 08:41:22;;;;;;;26.63;4.30;;;;;;;20.18;59.14;94547.13;4881807;29;20117;-87
2023/05/21 08:43:57;;;;;;;6.45;4.47;;;;;;;19.69;60.73;94498.75;4864541;29;20036;-86
2023/05/21 08:46:26;;;;;;;8.32;4.50;;;;;;;20.34;60.12;94532.41;4872936;29;20417;-95
2023/05/21 08:48:54;;;;;;;4.15;3.30;;;;;;;19.90;54.64;94477.03;4872270;29;20036;-87
2023/05/21 08:51:21;;;;;;;5.82;3.30;;;;;;;20.27;53.08;94537.81;4861704;29;20040;-87
2023/05/21 08:53:49;;;;;;;5.80;4.20;;;;;;;20.05;53.14;94529.03;4862679;29;20036;-88
2023/05/21 08:56:20;;;;;;;7.80;3.40;;;;;;;19.84;52.79;94535.00;4878130;29;20029;-94
2023/05/21 08:58:46;;;;;;;8.23;3.20;;;;;;;20.29;52.45;94534.97;4853503;29;20037;-96
2023/05/21 09:01:12;;;;;;;6.32;4.18;;;;;;;20.54;49.86;94535.31;4869914;29;20031;-90
2023/05/21 09:03:39;;;;;;;5.40;3.05;;;;;;;20.68;51.52;94530.50;4852893;29;20036;-95
2023/05/21 09:06:09;;;;;;;5.47;2.70;;;;;;;20.63;49.76;94522.53;4868941;29;20128;-90
2023/05/21 09:08:38;;;;;;;6.47;3.25;;;;;;;20.67;51.25;94523.66;4884674;29;20419;-96
2023/05/21 09:11:03;;;;;;;4.25;3.13;;;;;;;20.93;51.53;94520.28;4887602;29;20442;-95
2023/05/21 09:13:31;;;;;;;3.40;3.10;;;;;;;21.17;50.52;94520.84;4858191;29;20033;-96
2023/05/21 09:15:57;;;;;;;3.83;3.13;;;;;;;21.07;50.19;94510.97;4863150;29;20133;-94
2023/05/21 09:18:23;;;;;;;12.07;3.75;;;;;;;21.12;49.70;94516.34;4855482;29;20092;-96
2023/05/21 09:20:48;;;;;;;4.95;3.00;;;;;;;21.38;50.53;94512.91;4854677;29;20034;-91
2023/05/21 09:23:16;;;;;;;6.35;3.30;;;;;;;21.38;51.72;94520.81;4839847;29;20287;-86
2023/05/21 09:25:46;;;;;;;4.95;2.92;;;;;;;20.80;52.45;94512.75;4866761;29;20029;-90
2023/05/21 09:28:12;;;;;;;3.53;3.10;;;;;;;20.76;51.68;94511.66;4869270;29;20080;-89
2023/05/21 09:30:52;;;;;;;5.65;3.03;;;;;;;21.29;52.29;94510.97;4872798;29;20040;-95
2023/05/21 09:33:25;;;;;;;3.88;2.90;;;;;;;21.41;50.27;94512.44;4862324;29;20447;-89
2023/05/21 09:35:50;;;;;;;7.47;3.00;;;;;;;21.01;49.50;94509.31;4875904;29;20040;-94
2023/05/21 09:38:16;;;;;;;5.50;3.42;;;;;;;21.13;50.70;94501.34;4861904;29;20029;-84
2023/05/21 09:40:45;;;;;;;3.78;2.92;;;;;;;21.42;50.01;94508.75;4871992;29;20099;-86
2023/05/21 09:43:13;;;;;;;3.55;2.92;;;;;;;21.63;52.34;94495.75;4870197;29;20029;-88
2023/05/21 09:45:49;;;;;;;5.50;3.08;;;;;;;21.34;48.11;94488.13;4856535;29;20337;-91
2023/05/21 09:48:15;;;;;;;6.07;3.33;;;;;;;20.97;48.31;94487.13;4853874;29;20033;-92
2023/05/21 09:50:40;;;;;;;6.00;3.72;;;;;;;21.30;48.57;94502.03;4864707;29;20033;-84
2023/05/21 09:53:11;;;;;;;6.53;3.15;;;;;;;21.45;47.49;94489.00;4881932;29;20063;-90
2023/05/21 09:55:36;;;;;;;4.03;3.33;;;;;;;22.05;47.74;94481.66;4855194;29;20052;-96
2023/05/21 09:58:03;;;;;;;7.82;3.13;;;;;;;22.56;47.98;94474.84;4871945;29;20043;-87
2023/05/21 10:00:29;;;;;;;5.68;3.85;;;;;;;22.18;44.83;94461.94;4858808;29;20562;-93
2023/05/21 10:03:04;;;;;;;5.75;3.67;;;;;;;21.24;44.65;94422.16;4876254;29;20028;-90
2023/05/21 10:05:30;;;;;;;7.22;3.33;;;;;;;21.70;45.82;94456.81;4869505;29;20047;-93
2023/05/21 10:08:01;;;;;;;3.85;3.15;;;;;;;21.71;47.45;94429.38;4854707;29;20507;-88
2023/05/21 10:10:27;;;;;;;5.50;3.42;;;;;;;21.91;47.93;94471.75;4861295;29;20068;-92
2023/05/21 10:13:08;;;;;;;4.50;3.33;;;;;;;21.58;46.94;94472.00;4877178;29;20112;-92
2023/05/21 10:15:43;;;;;;;5.13;3.38;;;;;;;22.03;47.71;94480.28;4869326;29;20083;-85
2023/05/21 10:18:09;;;;;;;5.43;3.88;;;;;;;21.82;47.59;94458.22;4876894;29;20430;-93
2023/05/21 10:20:35;;;;;;;7.38;3.83;;;;;;;21.28;45.76;94464.59;4850771;29;20064;-77
2023/05/21 10:23:01;;;;;;;7.82;4.53;;;;;;;21.00;47.07;94455.84;4867685;29;20029;-88
2023/05/21 10:25:26;;;;;;;6.82;3.83;;;;;;;20.97;47.39;94468.72;4866730;29;20026;-93
2023/05/21 10:27:54;;;;;;;4.38;3.72;;;;;;;21.51;45.57;94464.31;4881454;29;20096;-88
2023/05/21 10:30:20;;;;;;;5.30;3.55;;;;;;;21.54;44.83;94453.25;4863188;29;20045;-89
2023/05/21 10:32:47;;;;;;;8.82;3.90;;;;;;;22.48;47.61;94462.09;4884769;29;20162;-88
2023/05/21 10:35:15;;;;;;;7.03;3.20;;;;;;;22.20;46.33;94467.75;4885354;29;20027;-89
2023/05/21 10:37:42;;;;;;;7.40;3.38;;;;;;;22.38;45.25;94459.41;4872479;29;20036;-92
2023/05/21 10:40:08;;;;;;;5.80;3.90;;;;;;;22.39;46.99;94453.09;4878170;29;20041;-85
2023/05/21 10:42:33;;;;;;;4.57;3.85;;;;;;;22.39;46.65;94465.50;4862129;29;20041;-88
2023/05/21 10:45:20;;;;;;;7.38;4.07;;;;;;;22.34;45.60;94468.09;4870000;29;20029;-89
2023/05/21 10:48:08;;;;;;;4.22;3.80;;;;;;;22.78;46.07;94463.34;4860210;29;20268;-92
2023/05/21 10:51:08;;;;;;;7.85;3.80;;;;;;;22.76;47.13;94463.59;4860154;29;20029;-89
2023/05/21 10:54:08;;;;;;;4.93;3.17;;;;;;;23.06;46.41;94466.34;4860161;29;20062;-91
2023/05/21 10:56:45;;;;;;;7.57;3.90;;;;;;;22.44;45.52;94450.47;4865308;29;20068;-87
2023/05/21 10:59:43;;;;;;;10.00;3.50;;;;;;;22.13;45.28;94455.81;4884666;29;20053;-84
2023/05/21 11:02:10;;;;;;;4.90;3.50;;;;;;;22.35;46.80;94451.19;4859821;29;20386;-91
2023/05/21 11:04:38;;;;;;;7.75;3.67;;;;;;;22.08;47.15;94464.50;4871230;29;20044;-90
2023/05/21 11:07:04;;;;;;;6.35;3.47;;;;;;;21.68;44.93;94446.50;4872911;29;20530;-86
2023/05/21 11:09:30;;;;;;;6.47;3.50;;;;;;;22.06;46.55;94451.56;4888685;29;20064;-87
2023/05/21 11:11:59;;;;;;;5.22;3.78;;;;;;;21.97;48.09;94452.28;4873784;29;20067;-91
2023/05/21 11:14:25;;;;;;;5.90;4.20;;;;;;;21.83;46.67;94457.16;4878284;29;20040;-92
2023/05/21 11:16:50;;;;;;;5.13;3.65;;;;;;;21.64;46.47;94455.19;4871786;29;20029;-89
2023/05/21 11:19:16;;;;;;;6.18;3.53;;;;;;;21.74;47.09;94455.25;4885869;29;20117;-91
2023/05/21 11:21:42;;;;;;;4.43;3.60;;;;;;;21.43;46.62;94456.84;4869359;29;20041;-91
2023/05/21 11:24:09;;;;;;;4.90;3.70;;;;;;;22.65;47.12;94446.09;4888971;29;20132;-92
2023/05/21 11:26:47;;;;;;;5.25;3.80;;;;;;;22.80;46.92;94442.72;4897371;29;20051;-92
2023/05/21 11:29:13;;;;;;;6.35;3.70;;;;;;;22.20;46.27;94440.56;4869120;29;20500;-89
2023/05/21 11:31:47;;;;;;;3.95;3.40;;;;;;;22.23;45.60;94437.41;4838211;29;20124;-86
2023/05/21 11:34:27;;;;;;;5.15;3.83;;;;;;;21.69;46.57;94439.41;4878351;29;20063;-90
2023/05/21 11:37:39;;;;;;;4.13;3.72;;;;;;;21.87;47.69;94436.34;4886478;29;20037;-87
2023/05/21 11:40:22;;;;;;;;;;;;;;;22.01;46.61;94443.63;4887577;29;20051;-90
2023/05/21 11:42:50;;;;;;;4.35;3.28;;;;;;;22.24;46.42;94431.09;4889163;29;19969;-86
2023/05/21 11:45:18;;;;;;;7.30;3.40;;;;;;;22.49;48.61;94437.31;4887391;29;20040;-89
2023/05/21 11:47:43;;;;;;;4.18;3.05;;;;;;;22.20;47.22;94428.16;4886187;29;20301;-92
2023/05/21 11:50:12;;;;;;;6.32;4.15;;;;;;;22.33;48.72;94419.00;4885966;29;20097;-86
2023/05/21 11:52:37;;;;;;;10.80;3.10;;;;;;;22.60;47.84;94444.19;4884676;29;20495;-93
2023/05/21 11:55:03;;;;;;;4.68;4.05;;;;;;;22.49;50.32;94434.66;4884462;29;20057;-87
2023/05/21 11:57:31;;;;;;;4.88;3.88;;;;;;;22.08;47.55;94432.84;4871259;29;20025;-89
2023/05/21 12:00:00;;;;;;;8.20;3.53;;;;;;;21.80;47.93;94422.63;4880013;29;20874;-89
2023/05/21 12:02:30;;;;;;;12.33;6.37;;;;;;;22.47;50.72;94425.41;4886936;29;20507;-89
2023/05/21 12:04:58;;;;;;;4.60;3.70;;;;;;;21.42;47.52;94408.59;4863534;29;20021;-86
2023/05/21 12:07:27;;;;;;;9.85;3.45;;;;;;;21.74;46.16;94423.59;4869603;29;20036;-86
2023/05/21 12:09:53;;;;;;;4.55;3.42;;;;;;;21.93;46.29;94398.47;4861695;29;20074;-87
2023/05/21 12:12:22;;;;;;;5.10;3.65;;;;;;;21.81;48.80;94421.56;4875415;29;20422;-82
2023/05/21 12:14:49;;;;;;;6.65;3.45;;;;;;;21.60;52.23;94417.19;4853014;29;20033;-89
2023/05/21 12:17:19;;;;;;;7.38;3.10;;;;;;;21.68;51.13;94417.50;4854938;29;20032;-91
2023/05/21 12:19:45;;;;;;;6.70;3.67;;;;;;;21.51;52.21;94416.84;4884310;29;20036;-92
2023/05/21 12:22:11;;;;;;;12.82;5.22;;;;;;;21.11;48.68;94398.03;4854419;29;20081;-92
2023/05/21 12:24:37;;;;;;;6.30;3.70;;;;;;;21.13;50.42;94417.81;4871953;29;20037;-94
2023/05/21 12:27:12;;;;;;;7.72;3.55;;;;;;;21.52;49.43;94413.94;4868878;29;20529;-91
2023/05/21 12:29:41;;;;;;;8.10;3.47;;;;;;;21.27;49.23;94405.03;4855352;29;20036;-88
2023/05/21 12:32:08;;;;;;;14.48;3.67;;;;;;;21.37;50.98;94415.66;4868415;29;20053;-90
2023/05/21 12:34:39;;;;;;;8.77;3.78;;;;;;;21.65;50.04;94418.00;4883438;29;20510;-93
2023/05/21 12:37:06;;;;;;;6.32;3.63;;;;;;;21.88;51.01;94399.19;4876144;29;20064;-91
2023/05/21 12:39:36;;;;;;;7.85;4.25;;;;;;;21.73;48.62;94409.66;4871142;29;20040;-90
2023/05/21 12:42:01;;;;;;;6.80;3.20;;;;;;;21.64;48.82;94403.22;4886324;29;20123;-81
2023/05/21 12:44:30;;;;;;;6.70;3.50;;;;;;;21.43;48.56;94414.66;4884926;29;20554;-81
2023/05/21 12:46:56;;;;;;;4.45;3.50;;;;;;;21.59;48.64;94400.56;4888414;29;20089;-86
2023/05/21 12:49:58;;;;;;;9.00;4.18;;;;;;;21.59;48.07;94405.03;4858851;29;20593;-84
2023/05/21 12:52:24;;;;;;;6.18;3.55;;;;;;;20.92;48.47;94382.56;4844941;29;20040;-90
2023/05/21 12:54:51;;;;;;;6.47;3.47;;;;;;;21.19;49.21;94376.53;4870134;29;20545;-85
2023/05/21 12:57:18;;;;;;;6.28;3.42;;;;;;;21.17;48.48;94397.84;4884008;29;20033;-84
2023/05/21 12:59:57;;;;;;;8.95;5.00;;;;;;;21.62;49.60;94399.25;4855726;29;20033;-92
2023/05/21 13:02:32;;;;;;;;;;;;;;;21.86;49.68;94387.31;4851795;29;20040;-93
2023/05/21 13:04:59;;;;;;;6.07;3.53;;;;;;;21.95;49.32;94391.09;4865600;29;19966;-89
2023/05/21 13:07:26;;;;;;;7.45;3.83;;;;;;;21.82;49.26;94362.50;4868994;29;20040;-86
2023/05/21 13:09:53;;;;;;;7.63;4.60;;;;;;;21.87;49.05;94378.34;4865946;29;20079;-88
2023/05/21 13:12:23;;;;;;;7.68;3.42;;;;;;;21.41;49.28;94372.78;4877420;29;20037;-87
2023/05/21 13:14:53;;;;;;;4.75;3.90;;;;;;;21.44;48.42;94385.44;4851781;29;20032;-87
2023/05/21 13:17:20;;;;;;;6.85;3.60;;;;;;;21.63;48.47;94391.13;4836630;29;20040;-88
2023/05/21 13:20:06;;;;;;;9.35;4.25;;;;;;;21.82;48.50;94383.59;4865195;29;20530;-89
2023/05/21 13:22:32;;;;;;;5.72;3.70;;;;;;;21.75;49.30;94362.72;4872367;29;20032;-85
2023/05/21 13:24:57;;;;;;;5.95;3.80;;;;;;;21.78;49.00;94372.75;4881007;29;20433;-76
2023/05/21 13:27:22;;;;;;;5.47;3.92;;;;;;;21.73;48.63;94369.28;4881380;29;20029;-91
2023/05/21 13:29:48;;;;;;;8.32;3.60;;;;;;;21.58;48.56;94371.84;4867756;29;20467;-86
2023/05/21 13:32:13;;;;;;;9.15;3.95;;;;;;;21.38;49.38;94359.28;4853801;29;20116;-85
2023/05/21 13:34:39;;;;;;;8.43;4.05;;;;;;;21.27;49.80;94360.25;4853062;29;20040;-89
2023/05/21 13:37:04;;;;;;;4.00;3.35;;;;;;;21.55;47.87;94357.28;4868662;29;20064;-88
2023/05/21 13:39:29;;;;;;;7.20;3.72;;;;;;;21.97;46.91;94381.06;4857110;29;20507;-91
2023/05/21 13:41:55;;;;;;;6.68;3.60;;;;;;;21.92;44.71;94381.84;4844256;29;20037;-92
2023/05/21 13:44:21;;;;;;;5.75;3.50;;;;;;;22.56;44.99;94381.63;4868792;29;20029;-84
2023/05/21 13:46:46;;;;;;;5.85;3.40;;;;;;;21.82;44.68;94370.41;4883464;29;20116;-85
2023/05/21 13:49:12;;;;;;;3.70;3.40;;;;;;;22.03;46.61;94393.22;4853362;29;20123;-89
2023/05/21 13:51:37;;;;;;;6.63;4.05;;;;;;;21.94;47.43;94386.84;4887698;29;20034;-91
2023/05/21 13:54:02;;;;;;;6.00;3.83;;;;;;;21.82;47.24;94383.59;4885099;29;20060;-83
2023/05/21 13:56:28;;;;;;;6.95;3.30;;;;;;;21.82;46.21;94375.69;4880827;29;20039;-83
2023/05/21 13:58:53;;;;;;;5.32;4.03;;;;;;;21.61;46.92;94384.50;4861100;29;20028;-83
2023/05/21 14:01:19;;;;;;;5.78;3.50;;;;;;;21.85;48.20;94381.25;4862661;29;20032;-88
2023/05/21 14:03:44;;;;;;;5.03;3.35;;;;;;;21.82;48.50;94379.13;4886227;29;20032;-86
2023/05/21 14:06:10;;;;;;;4.68;3.92;;;;;;;21.79;48.25;94384.09;4881921;29;20063;-85
2023/05/21 14:08:35;;;;;;;4.75;3.40;;;;;;;21.43;49.09;94378.56;4885099;29;20047;-76
2023/05/21 14:11:01;;;;;;;5.13;3.50;;;;;;;21.21;51.07;94369.16;4865989;29;20071;-85
2023/05/21 14:13:26;;;;;;;6.85;3.70;;;;;;;21.07;50.89;94381.91;4886038;29;20503;-88
2023/05/21 14:15:52;;;;;;;6.55;3.63;;;;;;;21.52;49.40;94390.22;4869691;29;20100;-94
2023/05/21 14:18:17;;;;;;;5.88;3.85;;;;;;;21.40;49.59;94402.78;4871599;29;20028;-91
2023/05/21 14:20:43;;;;;;;5.50;3.42;;;;;;;21.38;49.58;94383.00;4870584;29;20660;-90
2023/05/21 14:23:10;;;;;;;3.75;3.38;;;;;;;21.71;49.67;94368.75;4887350;29;20031;-91
2023/05/21 14:25:36;;;;;;;7.40;3.80;;;;;;;21.97;49.14;94386.34;4867521;29;20033;-87
2023/05/21 14:28:01;;;;;;;4.30;3.90;;;;;;;21.39;48.77;94361.66;4852404;29;20041;-86
2023/05/21 14:30:28;;;;;;;4.80;3.63;;;;;;;21.17;49.15;94373.31;4848665;29;20053;-78
2023/05/21 14:32:53;;;;;;;4.80;3.22;;;;;;;21.34;50.99;94368.75;4863488;29;20029;-87
2023/05/21 14:35:19;;;;;;;4.05;3.60;;;;;;;21.21;50.75;94364.69;4875920;29;20105;-87
2023/05/21 14:37:44;;;;;;;5.93;3.53;;;;;;;21.20;51.77;94386.00;4882279;29;20033;-91
2023/05/21 14:40:10;;;;;;;4.45;3.35;;;;;;;21.23;52.61;94396.03;4870398;29;20071;-92
2023/05/21 14:42:35;;;;;;;4.03;3.47;;;;;;;21.20;50.49;94399.97;4868991;29;20484;-87
2023/05/21 14:45:01;;;;;;;10.55;3.95;;;;;;;20.84;49.84;94387.47;4850732;29;20044;-87
2023/05/21 14:47:26;;;;;;;7.30;3.55;;;;;;;20.68;51.55;94394.41;4882723;29;20073;-89
2023/05/21 14:49:52;;;;;;;5.05;3.20;;;;;;;20.80;52.70;94410.88;4851708;29;20049;-91
2023/05/21 14:52:18;;;;;;;7.25;3.97;;;;;;;20.44;51.42;94409.69;4882188;29;20036;-93
2023/05/21 14:54:43;;;;;;;4.03;3.45;;;;;;;20.22;52.81;94385.16;4872077;29;20048;-90
2023/05/21 14:57:09;;;;;;;9.13;3.38;;;;;;;19.95;52.24;94363.22;4884920;29;20049;-87
2023/05/21 14:59:34;;;;;;;22.58;4.65;;;;;;;20.03;53.48;94402.28;4869732;29;20033;-93
2023/05/21 15:02:04;;;;;;;5.53;3.67;;;;;;;19.88;53.25;94410.72;4855337;29;20028;-88
2023/05/21 15:13:16;;;;;;;6.28;3.50;;;;;;;19.31;53.27;94419.78;4623468;23;20072;-95
2023/05/21 15:15:42;;;;;;;3.95;3.28;;;;;;;19.34;53.72;94419.31;4871813;29;20143;-89
2023/05/21 15:18:07;;;;;;;5.72;3.33;;;;;;;19.33;53.77;94422.97;4905829;29;20071;-89
2023/05/21 15:20:33;;;;;;;4.00;3.30;;;;;;;19.37;54.06;94427.50;4874661;29;20506;-88
2023/05/21 15:22:59;;;;;;;7.13;4.03;;;;;;;19.29;54.44;94417.41;4909181;29;20028;-92
2023/05/21 15:31:17;;;;;;;5.43;3.78;;;;;;;19.27;54.93;94437.03;5133448;23;20150;-94
2023/05/21 15:33:42;;;;;;;3.40;3.10;;;;;;;19.25;55.50;94433.88;4893571;29;22311;-91
2023/05/21 15:36:08;;;;;;;3.80;3.40;;;;;;;19.33;55.25;94439.53;4894433;29;20020;-93
2023/05/21 15:38:39;;;;;;;7.80;3.40;;;;;;;19.15;54.44;94441.56;4893168;29;20047;-88
2023/05/21 15:41:06;;;;;;;5.45;3.50;;;;;;;19.11;55.41;94433.34;4893944;29;20032;-95
2023/05/21 15:43:31;;;;;;;7.95;3.42;;;;;;;19.20;55.91;94444.28;4894390;29;20111;-90
2023/05/21 15:45:57;;;;;;;5.43;3.65;;;;;;;19.01;56.13;94430.53;4891133;29;20494;-87
2023/05/21 15:48:24;;;;;;;3.72;3.33;;;;;;;19.04;56.17;94435.31;4887527;29;20055;-92
2023/05/21 15:56:07;;;;;;;6.70;4.05;;;;;;;18.82;56.95;94431.78;5185057;23;20070;-80
2023/05/21 15:58:43;;;;;;;4.18;3.75;;;;;;;18.71;57.62;94416.88;5603418;23;20053;-83
2023/05/21 16:01:08;;;;;;;6.15;3.45;;;;;;;18.74;57.54;94430.34;5290510;23;20052;-86
2023/05/21 16:03:34;;;;;;;7.97;3.45;;;;;;;18.71;58.13;94435.25;4934294;28;20509;-91
2023/05/21 16:06:24;;;;;;;5.30;3.72;;;;;;;18.67;57.40;94440.16;4941462;28;20035;-80
2023/05/21 16:19:18;;;;;;;5.80;3.63;;;;;;;18.61;60.06;94443.72;4927995;23;20060;-94
2023/05/21 16:21:44;;;;;;;4.72;3.70;;;;;;;18.56;60.15;94445.44;4895696;29;20399;-91
2023/05/21 16:24:09;;;;;;;7.30;3.58;;;;;;;18.50;60.23;94436.66;4869964;29;20040;-86
2023/05/21 16:26:35;;;;;;;7.22;3.65;;;;;;;18.37;61.34;94442.94;5038281;23;20056;-93
2023/05/21 16:29:00;;;;;;;5.07;3.90;;;;;;;18.31;62.47;94432.56;4860705;29;20113;-96
2023/05/21 16:31:26;;;;;;;7.90;3.35;;;;;;;18.47;61.64;94455.47;4887795;29;20036;-92
2023/05/21 16:33:52;;;;;;;4.70;4.00;;;;;;;18.42;62.13;94453.53;4859679;29;20033;-93
2023/05/21 16:36:17;;;;;;;7.53;3.72;;;;;;;18.40;63.63;94463.44;4894334;29;20056;-93
2023/05/21 16:38:43;;;;;;;10.13;3.60;;;;;;;18.39;63.45;94458.44;4875309;29;20036;-94
2023/05/21 16:41:09;;;;;;;7.82;4.18;;;;;;;18.32;64.25;94448.09;4894240;29;20132;-93
2023/05/21 16:43:39;;;;;;;7.78;3.78;;;;;;;18.00;63.54;94420.66;4875530;29;20459;-91
2023/05/21 16:46:05;;;;;;;7.63;3.85;;;;;;;18.18;64.26;94459.84;4892009;29;20120;-90
2023/05/21 16:48:31;;;;;;;8.65;4.18;;;;;;;18.08;66.39;94443.06;4891662;29;20120;-91
2023/05/21 16:50:57;;;;;;;6.40;3.70;;;;;;;18.19;65.90;94463.25;4890961;29;20426;-91
2023/05/21 16:53:23;;;;;;;4.35;3.95;;;;;;;18.10;67.44;94460.19;4875000;29;20058;-91
2023/05/21 16:55:48;;;;;;;6.95;3.70;;;;;;;18.00;70.66;94449.47;4890561;29;20096;-92
2023/05/21 16:58:14;;;;;;;4.53;4.13;;;;;;;18.00;76.71;94465.22;4891964;29;20384;-90